Time;durP1;ratioP1;P1;durP2;ratioP2;P2;SDS_P1;SDS_P2;PMS_P1;PMS_P2;Temp;Humidity;BMP_temperature;BMP_pressure;BME280_temperature;BME280_humidity;BME280_pressure;Samples;Min_cycle;Max_cycle;Signal;HPM_P1;HPM_P2
2024/04/13 00:01:19;;;;;;;17.10;16.00;;;12.90;1.00;;;;;;5432098;26;21356;-52
2024/04/13 00:03:45;;;;;;;17.30;15.80;;;12.90;1.00;;;;;;5433059;26;20516;-49
2024/04/13 00:06:10;;;;;;;17.70;16.47;;;12.90;1.00;;;;;;5432368;26;21233;-53
2024/04/13 00:08:36;;;;;;;16.60;15.50;;;12.90;1.00;;;;;;5432566;26;20486;-51
2024/04/13 00:11:02;;;;;;;17.50;16.30;;;12.90;1.00;;;;;;5433834;26;20576;-47
2024/04/13 00:13:28;;;;;;;17.37;15.97;;;12.90;1.00;;;;;;5434755;26;20311;-49
2024/04/13 00:15:57;;;;;;;17.20;15.90;;;12.90;1.00;;;;;;5434574;26;20269;-49
2024/04/13 00:18:23;;;;;;;16.70;15.50;;;12.90;1.00;;;;;;5434233;26;20539;-45
2024/04/13 00:20:49;;;;;;;16.80;15.60;;;12.90;1.00;;;;;;5433580;26;21167;-47
2024/04/13 00:23:15;;;;;;;16.20;15.20;;;12.80;1.00;;;;;;5429188;26;20234;-47
2024/04/13 00:25:40;;;;;;;17.70;16.40;;;12.90;1.00;;;;;;5430772;26;20261;-49
2024/04/13 00:28:07;;;;;;;16.97;15.70;;;12.80;1.00;;;;;;5433385;26;20479;-48
2024/04/13 00:30:33;;;;;;;16.30;15.20;;;12.80;1.00;;;;;;5434202;26;20303;-38
2024/04/13 00:32:59;;;;;;;17.50;16.00;;;12.80;1.00;;;;;;5429741;26;20463;-41
2024/04/13 00:35:24;;;;;;;17.30;16.20;;;12.80;1.00;;;;;;5432439;26;20234;-41
2024/04/13 00:37:50;;;;;;;18.40;17.00;;;12.70;1.00;;;;;;5434425;26;20338;-41
2024/04/13 00:40:16;;;;;;;19.27;17.80;;;12.70;1.00;;;;;;5436866;26;20767;-39
2024/04/13 00:42:41;;;;;;;18.90;17.33;;;12.70;1.00;;;;;;5435467;26;20921;-39
2024/04/13 00:45:08;;;;;;;19.20;17.73;;;12.60;1.00;;;;;;5436420;26;20371;-43
2024/04/13 00:47:34;;;;;;;18.03;16.77;;;12.60;1.00;;;;;;5437829;26;20234;-41
2024/04/13 00:50:02;;;;;;;17.53;16.33;;;12.60;1.00;;;;;;5435739;26;20503;-39
2024/04/13 00:52:29;;;;;;;18.53;16.90;;;12.60;1.00;;;;;;5436231;26;21040;-38
2024/04/13 00:54:55;;;;;;;19.30;17.70;;;12.50;1.00;;;;;;5434894;26;20507;-38
2024/04/13 00:57:22;;;;;;;18.93;17.03;;;12.60;1.00;;;;;;5436882;26;20803;-38
2024/04/13 00:59:50;;;;;;;19.00;17.17;;;12.50;1.00;;;;;;5437691;26;20459;-42
2024/04/13 01:02:20;;;;;;;17.23;15.90;;;12.50;1.00;;;;;;5437842;26;20451;-38
2024/04/13 01:04:49;;;;;;;17.23;15.93;;;12.50;1.00;;;;;;5436557;26;20812;-38
2024/04/13 01:07:18;;;;;;;16.80;15.60;;;12.50;1.00;;;;;;5437764;26;20605;-49
2024/04/13 01:09:45;;;;;;;17.27;16.07;;;12.50;1.00;;;;;;5437376;26;20496;-46
2024/04/13 01:12:12;;;;;;;15.90;14.80;;;12.50;1.00;;;;;;5437060;26;20643;-49
2024/04/13 01:14:38;;;;;;;17.07;15.87;;;12.50;1.00;;;;;;5434868;26;20463;-48
2024/04/13 01:17:04;;;;;;;17.13;15.83;;;12.50;1.00;;;;;;5437250;26;20540;-47
2024/04/13 01:19:29;;;;;;;16.30;14.90;;;12.40;1.00;;;;;;5436529;26;20880;-48
2024/04/13 01:21:55;;;;;;;17.13;15.87;;;12.40;1.00;;;;;;5435269;26;20451;-50
2024/04/13 01:24:21;;;;;;;15.67;14.67;;;12.40;1.00;;;;;;5432959;26;20326;-50
2024/04/13 01:26:48;;;;;;;16.70;15.50;;;12.40;1.00;;;;;;5436366;26;20246;-52
2024/04/13 01:29:14;;;;;;;16.37;15.13;;;12.40;1.00;;;;;;5437502;26;20432;-50
2024/04/13 01:31:39;;;;;;;17.00;15.80;;;12.40;1.00;;;;;;5437368;26;20532;-45
2024/04/13 01:34:05;;;;;;;16.10;15.00;;;12.30;1.00;;;;;;5433424;26;20337;-45
2024/04/13 01:36:39;;;;;;;17.43;16.10;;;12.30;1.00;;;;;;5437631;26;20253;-49
2024/04/13 01:39:10;;;;;;;16.70;15.50;;;12.30;1.00;;;;;;5437874;26;20488;-50
2024/04/13 01:41:41;;;;;;;16.67;15.40;;;12.30;1.00;;;;;;5435926;26;20455;-47
2024/04/13 01:44:06;;;;;;;15.60;14.47;;;12.20;1.00;;;;;;5434688;26;20554;-51
2024/04/13 01:46:36;;;;;;;16.57;15.37;;;12.20;1.00;;;;;;5434463;26;21126;-47
2024/04/13 01:49:05;;;;;;;16.33;15.23;;;12.20;1.00;;;;;;5436756;26;20689;-41
2024/04/13 01:51:32;;;;;;;15.57;14.47;;;12.20;1.00;;;;;;5435859;26;20560;-40
2024/04/13 01:53:57;;;;;;;15.13;14.00;;;12.20;1.00;;;;;;5434276;26;20562;-44
2024/04/13 01:56:23;;;;;;;16.40;15.30;;;12.20;3.40;;;;;;5434539;26;20464;-39
2024/04/13 01:58:49;;;;;;;15.80;14.53;;;12.20;10.30;;;;;;5435954;26;20284;-42
2024/04/13 02:01:14;;;;;;;16.77;15.50;;;12.10;13.40;;;;;;5405342;26;20234;-41
2024/04/13 02:03:41;;;;;;;17.70;16.40;;;12.10;16.90;;;;;;5436712;26;20451;-39
2024/04/13 02:06:09;;;;;;;17.00;15.73;;;12.10;22.70;;;;;;5436424;26;20231;-40
2024/04/13 02:08:37;;;;;;;16.67;15.47;;;12.10;18.10;;;;;;5434574;26;20460;-42
2024/04/13 02:11:03;;;;;;;16.47;15.20;;;12.10;16.90;;;;;;5435723;26;20471;-42
2024/04/13 02:13:29;;;;;;;19.10;17.63;;;12.00;20.20;;;;;;5434208;26;20471;-40
2024/04/13 02:15:56;;;;;;;18.30;16.83;;;12.00;22.90;;;;;;5433600;26;20515;-39
2024/04/13 02:18:21;;;;;;;18.70;17.30;;;12.00;21.40;;;;;;5435596;26;20656;-41
2024/04/13 02:20:47;;;;;;;18.60;17.13;;;12.00;25.00;;;;;;5435365;26;20459;-40
2024/04/13 02:23:13;;;;;;;17.20;15.90;;;12.00;27.30;;;;;;5434867;26;20288;-48
2024/04/13 02:25:58;;;;;;;16.70;15.60;;;11.90;28.50;;;;;;5404933;26;20585;-52
2024/04/13 02:28:24;;;;;;;17.60;16.30;;;11.90;35.60;;;;;;5435377;26;20467;-50
2024/04/13 02:30:50;;;;;;;16.87;15.67;;;11.90;37.60;;;;;;5432321;26;20464;-47
2024/04/13 02:33:15;;;;;;;18.10;16.67;;;11.80;45.90;;;;;;5435638;26;21794;-49
2024/04/13 02:35:41;;;;;;;17.67;16.33;;;11.80;41.50;;;;;;5436270;26;20234;-52
2024/04/13 02:38:08;;;;;;;17.90;16.60;;;11.70;42.10;;;;;;5436061;26;20268;-50
2024/04/13 02:40:34;;;;;;;16.67;15.47;;;11.70;46.30;;;;;;5432709;26;20842;-51
2024/04/13 02:43:03;;;;;;;17.60;16.37;;;11.70;44.30;;;;;;5433529;26;20562;-51
2024/04/13 02:45:29;;;;;;;17.67;16.27;;;11.60;52.70;;;;;;5436103;26;20516;-52
2024/04/13 02:47:54;;;;;;;16.87;15.63;;;11.60;62.90;;;;;;5436182;26;20459;-44
2024/04/13 02:50:20;;;;;;;16.77;15.30;;;11.60;62.90;;;;;;5435165;26;20899;-48
2024/04/13 02:52:47;;;;;;;16.33;14.83;;;11.60;79.80;;;;;;5402943;26;20340;-48
2024/04/13 02:55:13;;;;;;;17.03;15.70;;;11.60;74.00;;;;;;5434073;26;20467;-47
2024/04/13 02:57:40;;;;;;;15.53;14.37;;;11.50;80.80;;;;;;5435420;26;20787;-40
2024/04/13 03:00:07;;;;;;;15.67;14.37;;;11.50;86.50;;;;;;5435596;26;20848;-38
2024/04/13 03:02:33;;;;;;;15.83;14.63;;;11.50;90.90;;;;;;5433776;26;20502;-38
2024/04/13 03:05:00;;;;;;;15.30;14.30;;;11.50;92.60;;;;;;5435714;26;20436;-47
2024/04/13 03:07:26;;;;;;;14.80;13.63;;;11.50;96.60;;;;;;5435156;26;20331;-48
2024/04/13 03:09:52;;;;;;;15.37;14.20;;;11.50;99.90;;;;;;5432348;26;20459;-48
2024/04/13 03:12:17;;;;;;;15.57;14.30;;;11.50;99.90;;;;;;5434308;26;20577;-42
2024/04/13 03:14:43;;;;;;;16.33;14.93;;;11.50;99.90;;;;;;5435220;26;20585;-38
2024/04/13 03:17:09;;;;;;;15.17;14.07;;;11.50;99.90;;;;;;5433898;26;20307;-38
2024/04/13 03:19:35;;;;;;;15.80;14.50;;;11.50;99.90;;;;;;5436006;26;20467;-50
2024/04/13 03:22:02;;;;;;;15.60;14.40;;;11.50;99.90;;;;;;5434627;26;20326;-50
2024/04/13 03:24:28;;;;;;;16.40;15.00;;;11.50;97.40;;;;;;5434887;26;20514;-49
2024/04/13 03:26:53;;;;;;;15.37;14.20;;;11.50;99.90;;;;;;5435541;26;20467;-46
2024/04/13 03:29:19;;;;;;;16.47;15.20;;;11.50;99.60;;;;;;5431690;26;20579;-50
2024/04/13 03:31:45;;;;;;;14.80;13.70;;;11.50;99.40;;;;;;5436128;26;20218;-50
2024/04/13 03:34:12;;;;;;;15.60;14.23;;;11.50;98.80;;;;;;5435261;26;20230;-50
2024/04/13 03:36:40;;;;;;;14.73;13.70;;;11.50;99.90;;;;;;5435563;26;21548;-51
2024/04/13 03:39:05;;;;;;;15.97;14.70;;;11.50;97.40;;;;;;5433040;26;20562;-49
2024/04/13 03:41:31;;;;;;;15.20;14.17;;;11.50;94.60;;;;;;5434589;26;20451;-45
2024/04/13 03:43:57;;;;;;;16.27;15.07;;;11.40;96.10;;;;;;5433826;26;20341;-47
2024/04/13 03:46:23;;;;;;;15.97;14.67;;;11.50;99.70;;;;;;5435023;26;20237;-49
2024/04/13 03:48:48;;;;;;;15.40;14.30;;;11.40;99.70;;;;;;5433700;26;21609;-51
2024/04/13 03:51:14;;;;;;;14.40;13.50;;;11.50;99.90;;;;;;5434597;26;20463;-47
2024/04/13 03:53:40;;;;;;;15.70;14.70;;;11.40;97.30;;;;;;5434510;26;20716;-47
2024/04/13 03:56:06;;;;;;;15.50;14.50;;;11.40;95.10;;;;;;5434597;26;20419;-52
2024/04/13 03:58:31;;;;;;;15.43;14.33;;;11.40;99.90;;;;;;5434135;26;20245;-50
2024/04/13 04:00:57;;;;;;;15.63;14.50;;;11.40;99.30;;;;;;5434352;26;20516;-49
2024/04/13 04:03:23;;;;;;;15.40;14.40;;;11.40;98.20;;;;;;5429840;26;20242;-39
2024/04/13 04:05:54;;;;;;;15.20;14.13;;;11.30;99.90;;;;;;5433574;26;20294;-39
2024/04/13 04:08:19;;;;;;;14.67;13.77;;;11.30;99.90;;;;;;5433889;26;20301;-42
2024/04/13 04:10:45;;;;;;;15.10;14.10;;;11.30;99.90;;;;;;5432578;26;20524;-42
2024/04/13 04:13:11;;;;;;;15.10;13.97;;;11.30;99.90;;;;;;5432494;26;20221;-41
2024/04/13 04:15:36;;;;;;;14.43;13.53;;;11.20;99.90;;;;;;5432478;26;20230;-44
2024/04/13 04:18:03;;;;;;;14.60;13.60;;;11.20;99.90;;;;;;5437726;26;20463;-39
2024/04/13 04:20:31;;;;;;;14.73;13.70;;;11.20;99.90;;;;;;5405812;26;20229;-39
2024/04/13 04:22:56;;;;;;;14.77;13.70;;;11.20;99.90;;;;;;5435860;26;20587;-39
2024/04/13 04:25:22;;;;;;;14.13;13.13;;;11.20;99.90;;;;;;5438487;26;20807;-42
2024/04/13 04:27:48;;;;;;;15.37;14.17;;;11.20;99.90;;;;;;5432836;26;20249;-40
2024/04/13 04:30:15;;;;;;;14.37;13.40;;;11.10;99.90;;;;;;5437775;26;20342;-40
2024/04/13 04:32:42;;;;;;;14.03;13.03;;;11.10;99.90;;;;;;5437177;26;21092;-46
2024/04/13 04:35:08;;;;;;;14.77;13.87;;;11.10;99.90;;;;;;5436803;26;20451;-39
2024/04/13 04:37:34;;;;;;;15.23;14.10;;;11.10;99.90;;;;;;5435916;26;21574;-43
2024/04/13 04:40:00;;;;;;;15.30;14.10;;;11.10;99.90;;;;;;5438284;26;20459;-44
2024/04/13 04:42:28;;;;;;;14.43;13.33;;;11.00;99.90;;;;;;5436809;26;20611;-40
2024/04/13 04:44:54;;;;;;;15.10;14.10;;;11.00;99.90;;;;;;5436183;26;20459;-42
2024/04/13 04:47:21;;;;;;;14.97;13.83;;;11.00;99.90;;;;;;5436679;26;20509;-41
2024/04/13 04:49:49;;;;;;;13.53;12.57;;;11.00;99.90;;;;;;5437476;26;20451;-48
2024/04/13 04:52:17;;;;;;;15.20;14.00;;;11.00;99.90;;;;;;5435797;26;20857;-45
2024/04/13 04:54:43;;;;;;;14.30;13.30;;;11.00;99.90;;;;;;5437551;26;20501;-51
2024/04/13 04:57:08;;;;;;;14.90;13.90;;;11.00;99.90;;;;;;5437591;26;21020;-49
2024/04/13 04:59:34;;;;;;;14.73;13.63;;;11.10;99.90;;;;;;5435713;26;20455;-50
2024/04/13 05:02:00;;;;;;;14.63;13.67;;;11.10;99.90;;;;;;5434539;26;20238;-47
2024/04/13 05:04:26;;;;;;;15.50;14.40;;;11.20;99.90;;;;;;5436110;26;20346;-48
2024/04/13 05:06:53;;;;;;;14.30;13.20;;;11.20;99.90;;;;;;5426604;26;20576;-49
2024/04/13 05:09:18;;;;;;;15.00;14.00;;;11.20;99.90;;;;;;5435011;26;20520;-49
2024/04/13 05:11:44;;;;;;;16.13;14.90;;;11.30;99.90;;;;;;5437524;26;20977;-48
2024/04/13 05:14:10;;;;;;;14.70;13.70;;;11.40;99.90;;;;;;5434157;26;20226;-50
2024/04/13 05:16:40;;;;;;;15.37;14.33;;;11.50;99.90;;;;;;5437415;26;20277;-50
2024/04/13 05:19:05;;;;;;;14.70;13.63;;;11.50;99.90;;;;;;5437765;26;20451;-44
2024/04/13 05:21:31;;;;;;;13.80;12.90;;;11.50;99.90;;;;;;5437082;26;20526;-42
2024/04/13 05:23:57;;;;;;;15.50;14.30;;;11.60;99.90;;;;;;5436247;26;20364;-39
2024/04/13 05:26:24;;;;;;;13.83;12.90;;;11.60;98.30;;;;;;5404784;26;20234;-41
2024/04/13 05:28:49;;;;;;;14.70;13.50;;;11.70;94.10;;;;;;5405739;26;20495;-40
2024/04/13 05:31:15;;;;;;;14.00;13.00;;;11.60;83.70;;;;;;5437100;26;20457;-43
2024/04/13 05:33:40;;;;;;;13.23;12.43;;;11.70;89.10;;;;;;5436766;26;20274;-41
2024/04/13 05:36:07;;;;;;;14.53;13.53;;;11.70;91.00;;;;;;5432872;26;20286;-39
2024/04/13 05:38:32;;;;;;;14.50;13.50;;;11.90;88.50;;;;;;5437378;26;20280;-38
2024/04/13 05:40:59;;;;;;;15.23;14.10;;;12.00;78.00;;;;;;5434542;26;20455;-40
2024/04/13 05:43:24;;;;;;;14.63;13.73;;;12.10;63.40;;;;;;5435380;26;20246;-50
2024/04/13 05:45:51;;;;;;;14.67;13.43;;;12.20;34.90;;;;;;5402864;26;20475;-43
2024/04/13 05:48:20;;;;;;;14.03;13.20;;;12.30;21.70;;;;;;5436040;26;21457;-41
2024/04/13 05:50:53;;;;;;;13.37;12.50;;;12.40;5.40;;;;;;5403270;26;20524;-43
2024/04/13 05:53:19;;;;;;;14.67;13.73;;;12.40;1.00;;;;;;5404389;26;21401;-40
2024/04/13 05:55:45;;;;;;;13.90;12.90;;;12.40;1.00;;;;;;5404574;26;20459;-41
2024/04/13 05:58:10;;;;;;;13.73;12.83;;;12.40;1.00;;;;;;5435135;26;20997;-41
2024/04/13 06:00:36;;;;;;;13.47;12.53;;;12.50;1.00;;;;;;5436818;26;20229;-45
2024/04/13 06:03:02;;;;;;;14.23;13.33;;;12.60;1.00;;;;;;5404220;26;20238;-43
2024/04/13 06:05:28;;;;;;;14.10;13.20;;;12.60;1.00;;;;;;5404794;26;20253;-39
2024/04/13 06:07:54;;;;;;;13.67;12.60;;;12.60;1.00;;;;;;5436525;26;20463;-44
2024/04/13 06:10:19;;;;;;;14.23;13.43;;;12.70;1.00;;;;;;5435010;26;20318;-42
2024/04/13 06:12:46;;;;;;;14.20;13.20;;;12.70;1.00;;;;;;5432663;26;20238;-45
2024/04/13 06:15:12;;;;;;;14.80;13.80;;;12.80;1.00;;;;;;5436880;26;20321;-41
2024/04/13 06:17:38;;;;;;;15.50;14.40;;;12.90;1.00;;;;;;5435210;26;20511;-40
2024/04/13 06:20:04;;;;;;;14.80;13.77;;;13.00;1.00;;;;;;5436837;26;21926;-45
2024/04/13 06:22:30;;;;;;;13.83;13.03;;;13.10;1.00;;;;;;5435428;26;20246;-45
2024/04/13 06:24:56;;;;;;;14.63;13.73;;;13.20;1.00;;;;;;5435939;26;21296;-39
2024/04/13 06:27:22;;;;;;;13.93;13.13;;;13.30;1.00;;;;;;5434951;26;20491;-43
2024/04/13 06:29:48;;;;;;;13.77;12.97;;;13.40;1.00;;;;;;5436770;26;20510;-42
2024/04/13 06:32:14;;;;;;;14.70;13.70;;;13.60;1.00;;;;;;5429891;26;20238;-38
2024/04/13 06:34:40;;;;;;;14.60;13.70;;;13.80;1.00;;;;;;5401845;26;20552;-43
2024/04/13 06:37:06;;;;;;;14.30;13.50;;;13.90;1.00;;;;;;5435375;26;20439;-41
2024/04/13 06:39:32;;;;;;;14.33;13.47;;;14.00;1.00;;;;;;5436322;26;20225;-42
2024/04/13 06:41:57;;;;;;;14.57;13.47;;;14.10;1.00;;;;;;5435906;26;20268;-44
2024/04/13 06:44:23;;;;;;;13.47;12.73;;;14.20;99.90;;;;;;5434997;26;20459;-39
2024/04/13 06:46:51;;;;;;;13.73;12.83;;;14.30;99.90;;;;;;5417186;26;20334;-42
2024/04/13 06:49:20;;;;;;;13.37;12.57;;;14.50;99.90;;;;;;5434075;26;20237;-41
2024/04/13 06:51:46;;;;;;;13.90;13.10;;;14.50;99.90;;;;;;5434216;26;20970;-43
2024/04/13 06:54:12;;;;;;;13.47;12.67;;;14.60;44.60;;;;;;5436088;26;20501;-40
2024/04/13 06:56:38;;;;;;;12.93;12.07;;;14.80;1.00;;;;;;5432406;26;20464;-48
2024/04/13 06:59:03;;;;;;;13.73;12.93;;;14.90;1.00;;;;;;5436392;26;20550;-40
2024/04/13 07:01:29;;;;;;;13.60;12.80;;;15.10;99.90;;;;;;5435484;26;20234;-45
2024/04/13 07:03:58;;;;;;;13.10;12.40;;;15.20;99.90;;;;;;5415366;26;20272;-42
2024/04/13 07:06:25;;;;;;;12.73;12.03;;;15.40;1.00;;;;;;5432062;26;20877;-42
2024/04/13 07:08:51;;;;;;;13.07;12.27;;;15.40;1.00;;;;;;5435298;26;20460;-43
2024/04/13 07:11:17;;;;;;;13.60;12.80;;;15.60;1.00;;;;;;5435285;26;20540;-39
2024/04/13 07:13:43;;;;;;;13.33;12.60;;;15.70;99.90;;;;;;5435133;26;20222;-42
2024/04/13 07:16:12;;;;;;;13.70;12.60;;;15.90;1.00;;;;;;5428808;26;20221;-38
2024/04/13 07:18:37;;;;;;;12.77;11.97;;;16.00;99.90;;;;;;5432638;26;20229;-38
2024/04/13 07:21:03;;;;;;;12.10;11.33;;;16.10;1.00;;;;;;5435524;26;20440;-53
2024/04/13 07:23:29;;;;;;;12.70;11.90;;;16.40;1.00;;;;;;5396835;26;20230;-52
2024/04/13 07:26:02;;;;;;;13.17;12.37;;;16.60;99.90;;;;;;5403044;26;20222;-52
2024/04/13 07:28:30;;;;;;;12.90;12.10;;;16.80;99.90;;;;;;5435578;26;21764;-49
2024/04/13 07:30:55;;;;;;;12.83;12.03;;;17.10;99.90;;;;;;5435322;26;20519;-49
2024/04/13 07:33:22;;;;;;;13.77;12.87;;;17.30;65.30;;;;;;5424631;26;20475;-51
2024/04/13 07:35:48;;;;;;;12.73;12.03;;;17.50;1.00;;;;;;5427436;26;20269;-54
2024/04/13 07:38:14;;;;;;;12.90;12.10;;;17.60;1.00;;;;;;5434747;26;20455;-48
2024/04/13 07:40:40;;;;;;;12.70;11.80;;;17.70;1.00;;;;;;5401939;26;20238;-52
2024/04/13 07:43:07;;;;;;;12.77;12.17;;;17.80;99.90;;;;;;5427832;26;20459;-39
2024/04/13 07:45:32;;;;;;;12.77;12.00;;;17.90;99.90;;;;;;5380066;26;20479;-40
2024/04/13 07:47:58;;;;;;;11.97;11.37;;;18.00;99.90;;;;;;5430387;26;21095;-40
2024/04/13 07:50:24;;;;;;;11.27;10.57;;;18.00;99.90;;;;;;5431313;26;20284;-41
2024/04/13 07:52:50;;;;;;;12.50;11.90;;;18.20;99.90;;;;;;5432183;26;20294;-37
2024/04/13 07:55:15;;;;;;;12.10;11.40;;;18.30;99.90;;;;;;5433870;26;20284;-45
2024/04/13 07:57:41;;;;;;;12.60;11.90;;;18.40;99.90;;;;;;5430593;26;20226;-41
2024/04/13 08:00:09;;;;;;;13.13;12.33;;;18.70;99.90;;;;;;5402829;26;20234;-38
2024/04/13 08:02:36;;;;;;;12.97;12.20;;;18.70;23.00;;;;;;5431967;26;20246;-40
2024/04/13 08:05:02;;;;;;;13.73;12.93;;;18.80;9.80;;;;;;5430591;26;20467;-49
2024/04/13 08:07:27;;;;;;;13.20;12.40;;;19.00;1.00;;;;;;5432745;26;20503;-49
2024/04/13 08:09:53;;;;;;;13.20;12.50;;;19.30;1.00;;;;;;5433290;26;20500;-50
2024/04/13 08:12:19;;;;;;;13.30;12.27;;;19.20;1.00;;;;;;5430262;26;20246;-44
2024/04/13 08:14:44;;;;;;;14.33;13.43;;;19.50;1.00;;;;;;5433095;26;20276;-47
2024/04/13 08:17:10;;;;;;;13.90;13.10;;;19.60;1.00;;;;;;5431884;26;20472;-48
2024/04/13 08:19:36;;;;;;;14.00;13.20;;;19.70;1.00;;;;;;5434672;26;20222;-51
2024/04/13 08:22:02;;;;;;;14.00;13.10;;;19.90;1.00;;;;;;5432872;26;20238;-42
2024/04/13 08:24:28;;;;;;;13.50;12.50;;;20.00;1.00;;;;;;5431354;26;20452;-40
2024/04/13 08:26:54;;;;;;;15.30;14.00;;;20.20;1.00;;;;;;5429547;26;20579;-41
2024/04/13 08:29:21;;;;;;;13.90;13.00;;;20.10;1.00;;;;;;5434228;26;20558;-38
2024/04/13 08:31:47;;;;;;;14.20;13.30;;;20.10;1.00;;;;;;5433926;26;20237;-41
2024/04/13 08:34:16;;;;;;;15.63;14.40;;;20.00;1.00;;;;;;5432564;26;20796;-39
2024/04/13 08:36:42;;;;;;;14.13;13.23;;;20.00;1.00;;;;;;5434577;26;20776;-43
2024/04/13 08:39:11;;;;;;;13.37;12.57;;;20.00;1.00;;;;;;5434395;26;20456;-39
2024/04/13 08:41:47;;;;;;;13.70;12.80;;;19.90;1.00;;;;;;5433814;26;20280;-41
2024/04/13 08:44:13;;;;;;;13.93;13.13;;;20.00;1.00;;;;;;5413777;26;20459;-41
2024/04/13 08:46:42;;;;;;;12.57;11.87;;;20.10;1.00;;;;;;5430291;26;20527;-41
2024/04/13 08:49:08;;;;;;;13.10;12.30;;;20.20;1.00;;;;;;5432855;26;20230;-39
2024/04/13 08:51:38;;;;;;;13.33;12.37;;;20.20;1.00;;;;;;5432598;26;20789;-41
2024/04/13 08:54:07;;;;;;;11.13;10.50;;;20.30;1.00;;;;;;5433208;26;20511;-40
2024/04/13 08:56:37;;;;;;;11.10;10.53;;;20.50;1.00;;;;;;5431292;26;20892;-40
2024/04/13 08:59:07;;;;;;;12.10;11.30;;;20.50;1.00;;;;;;5429872;26;20447;-43
2024/04/13 09:01:34;;;;;;;11.00;10.50;;;20.70;1.00;;;;;;5433204;26;20538;-40
2024/04/13 09:04:01;;;;;;;10.33;9.83;;;20.70;1.00;;;;;;5436772;26;20861;-39
2024/04/13 09:06:27;;;;;;;10.27;9.77;;;20.90;99.90;;;;;;5436885;26;20641;-40
2024/04/13 09:08:55;;;;;;;9.93;9.53;;;21.00;99.90;;;;;;5434509;26;20459;-42
2024/04/13 09:11:22;;;;;;;10.00;9.60;;;21.00;99.90;;;;;;5435927;26;20459;-39
2024/04/13 09:13:49;;;;;;;10.33;9.83;;;21.20;99.90;;;;;;5433162;26;20487;-43
2024/04/13 09:16:16;;;;;;;11.43;10.63;;;21.30;99.90;;;;;;5437187;26;20455;-40
2024/04/13 09:18:42;;;;;;;10.50;10.00;;;21.40;99.90;;;;;;5437157;26;21001;-52
2024/04/13 09:21:08;;;;;;;10.43;9.83;;;21.50;99.90;;;;;;5434822;26;20471;-49
2024/04/13 09:23:34;;;;;;;10.80;10.30;;;21.60;99.90;;;;;;5437250;26;20338;-50
2024/04/13 09:26:04;;;;;;;11.67;10.97;;;21.80;99.90;;;;;;5436496;26;21177;-53
2024/04/13 09:28:44;;;;;;;10.47;9.97;;;22.00;99.90;;;;;;5436375;26;20459;-43
2024/04/13 09:31:14;;;;;;;9.63;9.23;;;22.10;99.90;;;;;;5435230;26;20477;-40
2024/04/13 09:33:46;;;;;;;11.17;10.57;;;22.30;99.90;;;;;;5431813;26;20455;-45
2024/04/13 09:36:22;;;;;;;10.20;9.70;;;22.60;99.90;;;;;;5434462;26;20861;-39
2024/04/13 09:38:49;;;;;;;9.97;9.57;;;22.60;99.90;;;;;;5434402;26;20869;-43
2024/04/13 09:41:15;;;;;;;10.27;9.77;;;22.70;99.90;;;;;;5432284;26;20468;-51
2024/04/13 09:43:41;;;;;;;9.53;9.13;;;22.70;99.90;;;;;;5435926;26;21008;-50
2024/04/13 09:46:06;;;;;;;10.30;9.90;;;23.00;99.90;;;;;;5436366;26;20276;-49
2024/04/13 09:48:32;;;;;;;9.63;9.23;;;23.00;99.90;;;;;;5434639;26;20564;-48
2024/04/13 09:50:58;;;;;;;9.50;9.00;;;22.90;99.90;;;;;;5431579;26;20241;-53
2024/04/13 09:53:24;;;;;;;9.90;9.40;;;23.20;99.90;;;;;;5433027;26;20315;-51
2024/04/13 09:55:50;;;;;;;10.30;9.90;;;23.50;99.90;;;;;;5434986;26;20511;-53
2024/04/13 09:58:16;;;;;;;9.70;9.30;;;23.50;99.90;;;;;;5433609;26;20448;-49
2024/04/13 10:00:46;;;;;;;8.60;8.20;;;23.40;99.90;;;;;;5429504;26;20621;-54
2024/04/13 10:03:15;;;;;;;10.07;9.57;;;23.40;99.90;;;;;;5433580;26;20230;-50
2024/04/13 10:05:43;;;;;;;9.90;9.50;;;23.20;99.90;;;;;;5435251;26;20883;-50
2024/04/13 10:08:10;;;;;;;10.67;10.17;;;23.30;99.90;;;;;;5435282;26;20475;-54
2024/04/13 10:10:44;;;;;;;10.90;10.20;;;23.40;99.90;;;;;;5437016;26;20456;-54
2024/04/13 10:13:15;;;;;;;10.40;9.90;;;23.40;99.90;;;;;;5434981;26;20522;-51
2024/04/13 10:15:42;;;;;;;9.97;9.57;;;23.30;99.90;;;;;;5436440;26;20474;-49
2024/04/13 10:18:08;;;;;;;8.60;8.27;;;23.00;99.90;;;;;;5433737;26;20471;-52
2024/04/13 10:20:35;;;;;;;9.77;9.33;;;22.90;99.90;;;;;;5431216;26;20536;-51
2024/04/13 10:23:13;;;;;;;10.70;10.20;;;22.80;99.90;;;;;;5434674;26;21059;-39
2024/04/13 10:25:38;;;;;;;10.77;10.37;;;22.80;99.90;;;;;;5436694;26;21040;-42
2024/04/13 10:28:11;;;;;;;10.50;10.00;;;22.40;99.90;;;;;;5434457;26;20460;-41
2024/04/13 10:30:46;;;;;;;9.87;9.40;;;22.40;99.90;;;;;;5432859;26;20242;-39
2024/04/13 10:33:21;;;;;;;9.60;9.20;;;22.50;99.90;;;;;;5401443;26;20467;-42
2024/04/13 10:36:02;;;;;;;9.97;9.57;;;22.70;99.90;;;;;;5431883;26;21045;-38
2024/04/13 10:38:33;;;;;;;9.60;9.20;;;22.90;99.90;;;;;;5402350;26;20525;-41
2024/04/13 10:40:59;;;;;;;9.10;8.67;;;23.20;99.90;;;;;;5435769;26;20585;-41
2024/04/13 10:43:25;;;;;;;9.07;8.70;;;23.30;99.90;;;;;;5433975;26;20460;-39
2024/04/13 10:45:52;;;;;;;8.60;8.30;;;23.50;99.90;;;;;;5436261;26;20602;-39
2024/04/13 10:48:19;;;;;;;9.00;8.70;;;23.60;99.90;;;;;;5431356;26;20593;-42
2024/04/13 10:50:46;;;;;;;10.13;9.63;;;23.90;99.90;;;;;;5435592;26;20903;-42
2024/04/13 10:53:12;;;;;;;9.40;9.00;;;23.90;99.90;;;;;;5434849;26;20464;-49
2024/04/13 10:55:38;;;;;;;10.03;9.63;;;24.00;99.90;;;;;;5432543;26;20508;-52
2024/04/13 10:58:04;;;;;;;9.50;9.10;;;23.90;99.90;;;;;;5436282;26;20307;-52
2024/04/13 11:00:30;;;;;;;9.23;8.83;;;23.80;99.90;;;;;;5434559;26;21884;-47
2024/04/13 11:02:55;;;;;;;9.87;9.27;;;23.70;99.90;;;;;;5435345;26;20660;-38
2024/04/13 11:05:21;;;;;;;9.43;9.03;;;23.60;99.90;;;;;;5435360;26;20242;-37
2024/04/13 11:07:53;;;;;;;9.93;9.53;;;23.80;99.90;;;;;;5436491;26;20225;-37
2024/04/13 11:10:19;;;;;;;9.87;9.40;;;24.20;99.90;;;;;;5436742;26;20343;-39
2024/04/13 11:12:46;;;;;;;8.70;8.30;;;24.30;99.90;;;;;;5436355;26;20459;-38
2024/04/13 11:15:12;;;;;;;10.50;10.00;;;24.20;99.90;;;;;;5401235;26;20467;-42
2024/04/13 11:17:38;;;;;;;9.30;8.90;;;24.20;99.90;;;;;;5432384;26;20523;-42
2024/04/13 11:20:04;;;;;;;8.77;8.33;;;24.30;99.90;;;;;;5434972;26;20222;-40
2024/04/13 11:22:30;;;;;;;9.50;9.10;;;24.30;99.90;;;;;;5434497;26;20222;-49
2024/04/13 11:24:56;;;;;;;9.60;9.20;;;24.40;99.90;;;;;;5433774;26;20463;-44
2024/04/13 11:27:25;;;;;;;8.10;7.80;;;24.80;99.90;;;;;;5434229;26;22077;-47
2024/04/13 11:29:51;;;;;;;9.73;9.33;;;25.50;99.90;;;;;;5435709;26;20516;-52
2024/04/13 11:32:18;;;;;;;9.30;8.90;;;25.50;99.90;;;;;;5402802;26;20551;-51
2024/04/13 11:34:43;;;;;;;9.33;8.93;;;26.00;99.90;;;;;;5435836;26;21103;-46
2024/04/13 11:37:12;;;;;;;9.90;9.30;;;26.40;99.90;;;;;;5433759;26;20460;-51
2024/04/13 11:39:39;;;;;;;9.77;9.23;;;27.10;99.90;;;;;;5433615;26;20362;-44
2024/04/13 11:42:06;;;;;;;9.10;8.80;;;26.60;99.90;;;;;;5435039;26;20574;-45
2024/04/13 11:44:35;;;;;;;9.40;9.03;;;26.10;99.90;;;;;;5432664;26;21082;-51
2024/04/13 11:47:02;;;;;;;9.13;8.83;;;26.40;99.90;;;;;;5434918;26;20503;-50
2024/04/13 11:49:28;;;;;;;9.30;8.90;;;26.90;99.90;;;;;;5435631;26;20508;-50
2024/04/13 11:51:54;;;;;;;9.23;8.87;;;26.70;99.90;;;;;;5435256;26;20964;-47
2024/04/13 11:54:20;;;;;;;10.30;9.80;;;27.30;99.90;;;;;;5435569;26;20473;-47
2024/04/13 11:56:46;;;;;;;10.30;9.80;;;27.70;99.90;;;;;;5431417;26;20531;-38
2024/04/13 11:59:15;;;;;;;9.37;8.97;;;28.10;99.90;;;;;;5433560;26;20455;-41
2024/04/13 12:01:41;;;;;;;9.03;8.63;;;28.50;99.90;;;;;;5432689;26;20230;-41
2024/04/13 12:04:06;;;;;;;8.90;8.60;;;29.20;99.90;;;;;;5432816;26;20463;-39
2024/04/13 12:06:32;;;;;;;8.80;8.50;;;29.50;99.90;;;;;;5435816;26;20272;-38
2024/04/13 12:08:59;;;;;;;9.57;9.10;;;29.50;99.90;;;;;;5432394;26;20229;-43
2024/04/13 12:11:29;;;;;;;9.67;9.27;;;29.60;99.90;;;;;;5434561;26;21000;-44
2024/04/13 12:13:56;;;;;;;9.73;9.33;;;29.50;99.90;;;;;;5435585;26;20515;-41
2024/04/13 12:16:21;;;;;;;9.00;8.70;;;29.30;99.90;;;;;;5403938;26;20444;-42
2024/04/13 12:18:47;;;;;;;9.37;8.97;;;28.90;99.90;;;;;;5434402;26;20456;-41
2024/04/13 12:21:12;;;;;;;9.23;8.83;;;28.60;99.90;;;;;;5403185;26;20335;-38
2024/04/13 12:23:38;;;;;;;9.50;9.10;;;28.30;99.90;;;;;;5430626;26;20238;-38
2024/04/13 12:26:04;;;;;;;9.80;9.40;;;28.00;99.90;;;;;;5434273;26;20335;-39
2024/04/13 12:28:29;;;;;;;10.10;9.60;;;27.80;99.90;;;;;;5432950;26;20291;-39
2024/04/13 12:30:56;;;;;;;9.80;9.40;;;27.80;99.90;;;;;;5435094;26;20265;-39
2024/04/13 12:33:22;;;;;;;9.50;9.10;;;28.10;99.90;;;;;;5403813;26;20246;-39